sensor_id;sensor_type;location;lat;lon;timestamp;P1;durP1;ratioP1;P2;durP2;ratioP2
55202;SDS011;41077;52.956;6.796;2023-08-31T00:02:14;732.30;;;680.75;;
55202;SDS011;41077;52.956;6.796;2023-08-31T00:04:40;739.08;;;687.50;;
55202;SDS011;41077;52.956;6.796;2023-08-31T00:07:06;727.13;;;675.95;;
55202;SDS011;41077;52.956;6.796;2023-08-31T00:09:32;744.95;;;692.42;;
55202;SDS011;41077;52.956;6.796;2023-08-31T00:11:58;755.60;;;701.80;;
55202;SDS011;41077;52.956;6.796;2023-08-31T00:14:24;764.47;;;710.85;;
55202;SDS011;41077;52.956;6.796;2023-08-31T00:16:49;742.90;;;689.88;;
55202;SDS011;41077;52.956;6.796;2023-08-31T00:19:15;744.50;;;691.97;;
55202;SDS011;41077;52.956;6.796;2023-08-31T00:21:41;755.28;;;701.85;;
55202;SDS011;41077;52.956;6.796;2023-08-31T00:24:07;727.67;;;676.83;;
55202;SDS011;41077;52.956;6.796;2023-08-31T00:26:34;756.88;;;703.67;;
55202;SDS011;41077;52.956;6.796;2023-08-31T00:29:04;744.05;;;692.20;;
55202;SDS011;41077;52.956;6.796;2023-08-31T00:31:30;740.63;;;688.72;;
55202;SDS011;41077;52.956;6.796;2023-08-31T00:33:56;755.83;;;702.50;;
55202;SDS011;41077;52.956;6.796;2023-08-31T00:36:21;729.17;;;678.70;;
55202;SDS011;41077;52.956;6.796;2023-08-31T00:38:48;725.63;;;675.15;;
55202;SDS011;41077;52.956;6.796;2023-08-31T00:41:14;723.03;;;673.15;;
55202;SDS011;41077;52.956;6.796;2023-08-31T00:43:40;716.67;;;667.60;;
55202;SDS011;41077;52.956;6.796;2023-08-31T00:46:05;706.28;;;658.08;;
55202;SDS011;41077;52.956;6.796;2023-08-31T00:48:31;684.15;;;637.88;;
55202;SDS011;41077;52.956;6.796;2023-08-31T00:50:57;699.08;;;651.10;;
55202;SDS011;41077;52.956;6.796;2023-08-31T00:53:23;699.85;;;652.05;;
55202;SDS011;41077;52.956;6.796;2023-08-31T00:55:50;703.92;;;655.83;;
55202;SDS011;41077;52.956;6.796;2023-08-31T00:58:16;684.13;;;637.38;;
55202;SDS011;41077;52.956;6.796;2023-08-31T01:03:17;683.70;;;636.95;;
55202;SDS011;41077;52.956;6.796;2023-08-31T01:05:56;674.63;;;628.75;;
55202;SDS011;41077;52.956;6.796;2023-08-31T01:14:08;648.50;;;604.60;;
55202;SDS011;41077;52.956;6.796;2023-08-31T01:16:37;650.92;;;606.60;;
55202;SDS011;41077;52.956;6.796;2023-08-31T01:19:08;655.95;;;611.90;;
55202;SDS011;41077;52.956;6.796;2023-08-31T01:21:47;655.45;;;611.55;;
55202;SDS011;41077;52.956;6.796;2023-08-31T01:24:15;658.00;;;613.58;;
55202;SDS011;41077;52.956;6.796;2023-08-31T01:26:42;657.40;;;613.22;;
55202;SDS011;41077;52.956;6.796;2023-08-31T01:29:08;641.45;;;598.53;;
55202;SDS011;41077;52.956;6.796;2023-08-31T01:31:41;653.45;;;609.45;;
55202;SDS011;41077;52.956;6.796;2023-08-31T01:34:08;636.65;;;593.88;;
55202;SDS011;41077;52.956;6.796;2023-08-31T01:36:35;640.70;;;597.58;;
55202;SDS011;41077;52.956;6.796;2023-08-31T01:39:17;624.28;;;582.92;;
55202;SDS011;41077;52.956;6.796;2023-08-31T01:41:54;593.53;;;554.67;;
55202;SDS011;41077;52.956;6.796;2023-08-31T01:44:22;580.50;;;542.22;;
55202;SDS011;41077;52.956;6.796;2023-08-31T01:46:51;582.17;;;543.67;;
55202;SDS011;41077;52.956;6.796;2023-08-31T01:49:21;577.53;;;539.22;;
55202;SDS011;41077;52.956;6.796;2023-08-31T01:51:46;569.58;;;531.92;;
55202;SDS011;41077;52.956;6.796;2023-08-31T01:54:13;579.47;;;541.10;;
55202;SDS011;41077;52.956;6.796;2023-08-31T01:56:38;566.22;;;528.30;;
55202;SDS011;41077;52.956;6.796;2023-08-31T01:59:04;572.83;;;534.45;;
55202;SDS011;41077;52.956;6.796;2023-08-31T02:01:32;569.28;;;531.47;;
55202;SDS011;41077;52.956;6.796;2023-08-31T02:03:58;573.53;;;535.13;;
55202;SDS011;41077;52.956;6.796;2023-08-31T02:06:23;558.38;;;521.38;;
55202;SDS011;41077;52.956;6.796;2023-08-31T02:08:49;560.83;;;523.65;;
55202;SDS011;41077;52.956;6.796;2023-08-31T02:11:15;549.95;;;513.25;;
55202;SDS011;41077;52.956;6.796;2023-08-31T02:13:41;555.28;;;517.97;;
55202;SDS011;41077;52.956;6.796;2023-08-31T02:16:07;559.13;;;521.75;;
55202;SDS011;41077;52.956;6.796;2023-08-31T02:18:33;556.45;;;518.90;;
55202;SDS011;41077;52.956;6.796;2023-08-31T02:20:58;562.78;;;525.15;;
55202;SDS011;41077;52.956;6.796;2023-08-31T02:23:24;559.63;;;522.38;;
55202;SDS011;41077;52.956;6.796;2023-08-31T02:25:50;539.35;;;503.35;;
55202;SDS011;41077;52.956;6.796;2023-08-31T02:28:15;559.85;;;522.60;;
55202;SDS011;41077;52.956;6.796;2023-08-31T02:30:44;538.58;;;502.45;;
55202;SDS011;41077;52.956;6.796;2023-08-31T02:33:11;544.10;;;507.70;;
55202;SDS011;41077;52.956;6.796;2023-08-31T02:35:36;552.28;;;514.97;;
55202;SDS011;41077;52.956;6.796;2023-08-31T02:38:02;545.17;;;508.45;;
55202;SDS011;41077;52.956;6.796;2023-08-31T02:40:28;538.95;;;502.70;;
55202;SDS011;41077;52.956;6.796;2023-08-31T02:42:54;550.72;;;513.33;;
55202;SDS011;41077;52.956;6.796;2023-08-31T02:45:19;556.25;;;518.60;;
55202;SDS011;41077;52.956;6.796;2023-08-31T02:47:45;547.13;;;510.17;;
55202;SDS011;41077;52.956;6.796;2023-08-31T02:50:11;555.63;;;518.00;;
55202;SDS011;41077;52.956;6.796;2023-08-31T02:52:37;548.33;;;511.17;;
55202;SDS011;41077;52.956;6.796;2023-08-31T02:55:02;553.30;;;516.05;;
55202;SDS011;41077;52.956;6.796;2023-08-31T02:57:28;554.60;;;516.88;;
55202;SDS011;41077;52.956;6.796;2023-08-31T02:59:54;557.45;;;519.55;;
55202;SDS011;41077;52.956;6.796;2023-08-31T03:02:20;542.25;;;505.52;;
55202;SDS011;41077;52.956;6.796;2023-08-31T03:04:47;557.80;;;519.42;;
55202;SDS011;41077;52.956;6.796;2023-08-31T03:07:12;565.05;;;525.92;;
55202;SDS011;41077;52.956;6.796;2023-08-31T03:09:40;548.55;;;511.17;;
55202;SDS011;41077;52.956;6.796;2023-08-31T03:12:06;556.90;;;518.83;;
55202;SDS011;41077;52.956;6.796;2023-08-31T03:14:31;567.45;;;528.75;;
55202;SDS011;41077;52.956;6.796;2023-08-31T03:16:57;567.80;;;528.92;;
55202;SDS011;41077;52.956;6.796;2023-08-31T03:19:23;556.70;;;518.78;;
55202;SDS011;41077;52.956;6.796;2023-08-31T03:21:49;565.92;;;526.97;;
55202;SDS011;41077;52.956;6.796;2023-08-31T03:24:15;569.95;;;530.95;;
55202;SDS011;41077;52.956;6.796;2023-08-31T03:26:41;572.97;;;533.80;;
55202;SDS011;41077;52.956;6.796;2023-08-31T03:29:06;556.85;;;519.35;;
55202;SDS011;41077;52.956;6.796;2023-08-31T03:31:33;568.75;;;529.80;;
55202;SDS011;41077;52.956;6.796;2023-08-31T03:33:58;560.20;;;522.63;;
55202;SDS011;41077;52.956;6.796;2023-08-31T03:36:24;559.08;;;521.95;;
55202;SDS011;41077;52.956;6.796;2023-08-31T03:38:49;539.80;;;503.60;;
55202;SDS011;41077;52.956;6.796;2023-08-31T03:41:15;561.10;;;522.42;;
55202;SDS011;41077;52.956;6.796;2023-08-31T03:43:41;616.45;;;573.42;;
55202;SDS011;41077;52.956;6.796;2023-08-31T03:46:06;638.20;;;593.53;;
55202;SDS011;41077;52.956;6.796;2023-08-31T03:48:32;647.60;;;601.90;;
55202;SDS011;41077;52.956;6.796;2023-08-31T03:50:58;665.20;;;618.25;;
55202;SDS011;41077;52.956;6.796;2023-08-31T03:53:23;697.25;;;647.55;;
55202;SDS011;41077;52.956;6.796;2023-08-31T03:55:49;708.03;;;658.15;;
55202;SDS011;41077;52.956;6.796;2023-08-31T03:58:15;727.25;;;675.88;;
55202;SDS011;41077;52.956;6.796;2023-08-31T04:00:41;734.80;;;682.65;;
55202;SDS011;41077;52.956;6.796;2023-08-31T04:03:07;774.60;;;718.88;;
55202;SDS011;41077;52.956;6.796;2023-08-31T04:05:34;749.90;;;696.15;;
55202;SDS011;41077;52.956;6.796;2023-08-31T04:08:01;763.45;;;708.80;;
55202;SDS011;41077;52.956;6.796;2023-08-31T04:10:27;776.97;;;721.33;;
55202;SDS011;41077;52.956;6.796;2023-08-31T04:12:55;778.97;;;722.72;;
55202;SDS011;41077;52.956;6.796;2023-08-31T04:15:21;782.47;;;727.22;;
55202;SDS011;41077;52.956;6.796;2023-08-31T04:17:46;792.25;;;735.30;;
55202;SDS011;41077;52.956;6.796;2023-08-31T04:20:12;785.40;;;729.05;;
55202;SDS011;41077;52.956;6.796;2023-08-31T04:22:38;791.95;;;736.30;;
55202;SDS011;41077;52.956;6.796;2023-08-31T04:25:03;788.17;;;731.53;;
55202;SDS011;41077;52.956;6.796;2023-08-31T04:27:29;798.05;;;740.88;;
55202;SDS011;41077;52.956;6.796;2023-08-31T04:29:56;810.60;;;751.95;;
55202;SDS011;41077;52.956;6.796;2023-08-31T04:32:23;807.70;;;749.38;;
55202;SDS011;41077;52.956;6.796;2023-08-31T04:34:50;793.70;;;738.10;;
55202;SDS011;41077;52.956;6.796;2023-08-31T04:37:16;843.50;;;781.42;;
55202;SDS011;41077;52.956;6.796;2023-08-31T04:39:42;824.15;;;763.88;;
55202;SDS011;41077;52.956;6.796;2023-08-31T04:42:08;809.10;;;751.30;;
55202;SDS011;41077;52.956;6.796;2023-08-31T04:44:34;832.03;;;772.47;;
55202;SDS011;41077;52.956;6.796;2023-08-31T04:47:00;817.72;;;758.88;;
55202;SDS011;41077;52.956;6.796;2023-08-31T04:49:26;831.65;;;771.88;;
55202;SDS011;41077;52.956;6.796;2023-08-31T04:51:52;802.55;;;745.92;;
55202;SDS011;41077;52.956;6.796;2023-08-31T04:54:18;840.33;;;779.33;;
55202;SDS011;41077;52.956;6.796;2023-08-31T04:56:44;830.28;;;770.70;;
55202;SDS011;41077;52.956;6.796;2023-08-31T04:59:09;825.67;;;766.80;;
55202;SDS011;41077;52.956;6.796;2023-08-31T05:01:35;786.40;;;730.85;;
55202;SDS011;41077;52.956;6.796;2023-08-31T05:04:01;795.00;;;738.53;;
55202;SDS011;41077;52.956;6.796;2023-08-31T05:06:28;817.65;;;758.92;;
55202;SDS011;41077;52.956;6.796;2023-08-31T05:08:53;837.22;;;776.60;;
55202;SDS011;41077;52.956;6.796;2023-08-31T05:11:19;770.17;;;716.05;;
55202;SDS011;41077;52.956;6.796;2023-08-31T05:13:45;793.40;;;737.25;;
55202;SDS011;41077;52.956;6.796;2023-08-31T05:16:11;815.35;;;756.85;;
55202;SDS011;41077;52.956;6.796;2023-08-31T05:18:37;831.15;;;770.80;;
55202;SDS011;41077;52.956;6.796;2023-08-31T05:21:03;806.97;;;749.40;;
55202;SDS011;41077;52.956;6.796;2023-08-31T05:23:29;791.50;;;736.35;;
55202;SDS011;41077;52.956;6.796;2023-08-31T05:25:55;830.83;;;770.33;;
55202;SDS011;41077;52.956;6.796;2023-08-31T05:28:24;810.72;;;752.38;;
55202;SDS011;41077;52.956;6.796;2023-08-31T05:30:50;809.15;;;752.05;;
55202;SDS011;41077;52.956;6.796;2023-08-31T05:33:19;778.60;;;723.58;;
55202;SDS011;41077;52.956;6.796;2023-08-31T05:35:47;777.08;;;722.50;;
55202;SDS011;41077;52.956;6.796;2023-08-31T05:38:13;765.95;;;711.88;;
55202;SDS011;41077;52.956;6.796;2023-08-31T05:40:39;781.28;;;724.97;;
55202;SDS011;41077;52.956;6.796;2023-08-31T05:43:06;778.70;;;723.25;;
55202;SDS011;41077;52.956;6.796;2023-08-31T05:45:33;810.13;;;751.03;;
55202;SDS011;41077;52.956;6.796;2023-08-31T05:47:59;813.05;;;752.80;;
55202;SDS011;41077;52.956;6.796;2023-08-31T05:50:25;786.00;;;728.03;;
55202;SDS011;41077;52.956;6.796;2023-08-31T05:52:52;789.50;;;731.55;;
55202;SDS011;41077;52.956;6.796;2023-08-31T05:55:17;788.03;;;730.72;;
55202;SDS011;41077;52.956;6.796;2023-08-31T05:57:43;799.58;;;739.97;;
55202;SDS011;41077;52.956;6.796;2023-08-31T06:00:09;791.13;;;732.50;;
55202;SDS011;41077;52.956;6.796;2023-08-31T06:02:35;798.63;;;739.20;;
55202;SDS011;41077;52.956;6.796;2023-08-31T06:05:01;833.45;;;770.45;;
55202;SDS011;41077;52.956;6.796;2023-08-31T06:07:28;822.72;;;761.13;;
55202;SDS011;41077;52.956;6.796;2023-08-31T06:09:54;846.35;;;781.00;;
55202;SDS011;41077;52.956;6.796;2023-08-31T06:12:21;856.03;;;790.25;;
55202;SDS011;41077;52.956;6.796;2023-08-31T06:14:47;808.85;;;749.42;;
55202;SDS011;41077;52.956;6.796;2023-08-31T06:17:12;845.72;;;781.83;;
55202;SDS011;41077;52.956;6.796;2023-08-31T06:19:38;827.70;;;765.53;;
55202;SDS011;41077;52.956;6.796;2023-08-31T06:22:05;874.20;;;806.88;;
55202;SDS011;41077;52.956;6.796;2023-08-31T06:24:30;873.10;;;806.03;;
55202;SDS011;41077;52.956;6.796;2023-08-31T06:26:57;879.10;;;811.95;;
55202;SDS011;41077;52.956;6.796;2023-08-31T06:29:23;900.78;;;830.33;;
55202;SDS011;41077;52.956;6.796;2023-08-31T06:31:48;884.63;;;817.70;;
55202;SDS011;41077;52.956;6.796;2023-08-31T06:34:14;886.70;;;818.05;;
55202;SDS011;41077;52.956;6.796;2023-08-31T06:36:40;930.80;;;856.83;;
55202;SDS011;41077;52.956;6.796;2023-08-31T06:39:06;935.83;;;860.95;;
55202;SDS011;41077;52.956;6.796;2023-08-31T06:41:32;956.10;;;878.78;;
55202;SDS011;41077;52.956;6.796;2023-08-31T06:43:58;946.83;;;871.05;;
55202;SDS011;41077;52.956;6.796;2023-08-31T06:46:24;972.28;;;891.83;;
55202;SDS011;41077;52.956;6.796;2023-08-31T06:48:50;988.70;;;907.22;;
55202;SDS011;41077;52.956;6.796;2023-08-31T06:51:16;980.75;;;899.45;;
55202;SDS011;41077;52.956;6.796;2023-08-31T06:53:42;972.75;;;891.92;;
55202;SDS011;41077;52.956;6.796;2023-08-31T06:56:09;976.17;;;894.28;;
55202;SDS011;41077;52.956;6.796;2023-08-31T06:58:35;1003.83;;;918.78;;
55202;SDS011;41077;52.956;6.796;2023-08-31T07:01:05;1004.03;;;919.00;;
55202;SDS011;41077;52.956;6.796;2023-08-31T07:03:30;1027.18;;;936.88;;
55202;SDS011;41077;52.956;6.796;2023-08-31T07:05:56;991.28;;;906.97;;
55202;SDS011;41077;52.956;6.796;2023-08-31T07:08:22;1020.17;;;931.22;;
55202;SDS011;41077;52.956;6.796;2023-08-31T07:10:49;1007.55;;;918.38;;
55202;SDS011;41077;52.956;6.796;2023-08-31T07:13:15;1029.97;;;939.40;;
55202;SDS011;41077;52.956;6.796;2023-08-31T07:15:41;1035.38;;;941.22;;
55202;SDS011;41077;52.956;6.796;2023-08-31T07:18:07;1015.92;;;925.90;;
55202;SDS011;41077;52.956;6.796;2023-08-31T07:20:33;1009.08;;;920.97;;
55202;SDS011;41077;52.956;6.796;2023-08-31T07:22:59;1011.42;;;919.67;;
55202;SDS011;41077;52.956;6.796;2023-08-31T07:25:24;1012.88;;;921.15;;
55202;SDS011;41077;52.956;6.796;2023-08-31T07:27:50;1048.35;;;952.33;;
55202;SDS011;41077;52.956;6.796;2023-08-31T07:30:17;1042.97;;;948.38;;
55202;SDS011;41077;52.956;6.796;2023-08-31T07:32:42;1035.28;;;943.75;;
55202;SDS011;41077;52.956;6.796;2023-08-31T07:35:08;1036.85;;;943.30;;
55202;SDS011;41077;52.956;6.796;2023-08-31T07:37:34;1051.90;;;955.13;;
55202;SDS011;41077;52.956;6.796;2023-08-31T07:40:02;1051.03;;;954.88;;
55202;SDS011;41077;52.956;6.796;2023-08-31T07:42:29;1048.95;;;951.35;;
55202;SDS011;41077;52.956;6.796;2023-08-31T07:44:54;1058.70;;;960.00;;
55202;SDS011;41077;52.956;6.796;2023-08-31T07:47:20;1065.03;;;963.22;;
55202;SDS011;41077;52.956;6.796;2023-08-31T07:49:46;1083.15;;;978.40;;
55202;SDS011;41077;52.956;6.796;2023-08-31T07:52:11;1057.10;;;954.97;;
55202;SDS011;41077;52.956;6.796;2023-08-31T07:54:37;1043.65;;;944.92;;
55202;SDS011;41077;52.956;6.796;2023-08-31T07:57:03;1056.93;;;953.97;;
55202;SDS011;41077;52.956;6.796;2023-08-31T07:59:29;1059.85;;;955.15;;
55202;SDS011;41077;52.956;6.796;2023-08-31T08:01:54;1051.25;;;948.25;;
55202;SDS011;41077;52.956;6.796;2023-08-31T08:04:20;1051.93;;;947.63;;
55202;SDS011;41077;52.956;6.796;2023-08-31T08:06:46;1064.32;;;958.20;;
55202;SDS011;41077;52.956;6.796;2023-08-31T08:09:14;1058.28;;;951.97;;
55202;SDS011;41077;52.956;6.796;2023-08-31T08:11:40;1087.47;;;977.63;;
55202;SDS011;41077;52.956;6.796;2023-08-31T08:14:07;1074.30;;;963.88;;
55202;SDS011;41077;52.956;6.796;2023-08-31T08:16:33;1000.00;;;909.63;;
55202;SDS011;41077;52.956;6.796;2023-08-31T08:19:00;949.13;;;867.65;;
55202;SDS011;41077;52.956;6.796;2023-08-31T08:21:26;879.85;;;808.65;;
55202;SDS011;41077;52.956;6.796;2023-08-31T08:23:52;866.22;;;797.03;;
55202;SDS011;41077;52.956;6.796;2023-08-31T08:26:18;774.00;;;715.97;;
55202;SDS011;41077;52.956;6.796;2023-08-31T08:28:43;670.22;;;621.95;;
55202;SDS011;41077;52.956;6.796;2023-08-31T08:31:09;761.95;;;706.45;;
55202;SDS011;41077;52.956;6.796;2023-08-31T08:33:35;783.00;;;725.05;;
55202;SDS011;41077;52.956;6.796;2023-08-31T08:36:01;850.03;;;783.45;;
55202;SDS011;41077;52.956;6.796;2023-08-31T08:38:27;910.70;;;835.50;;
55202;SDS011;41077;52.956;6.796;2023-08-31T08:40:52;897.47;;;822.75;;
55202;SDS011;41077;52.956;6.796;2023-08-31T08:43:21;934.17;;;855.20;;
55202;SDS011;41077;52.956;6.796;2023-08-31T08:45:51;905.60;;;830.88;;
55202;SDS011;41077;52.956;6.796;2023-08-31T08:48:17;862.15;;;793.15;;
55202;SDS011;41077;52.956;6.796;2023-08-31T08:50:44;863.15;;;792.67;;
55202;SDS011;41077;52.956;6.796;2023-08-31T08:53:10;848.28;;;782.08;;
55202;SDS011;41077;52.956;6.796;2023-08-31T08:55:38;855.75;;;788.35;;
55202;SDS011;41077;52.956;6.796;2023-08-31T08:58:05;839.85;;;773.05;;
55202;SDS011;41077;52.956;6.796;2023-08-31T09:00:31;781.65;;;723.53;;
55202;SDS011;41077;52.956;6.796;2023-08-31T09:02:58;815.45;;;753.78;;
55202;SDS011;41077;52.956;6.796;2023-08-31T09:05:25;876.20;;;806.00;;
55202;SDS011;41077;52.956;6.796;2023-08-31T09:08:09;876.95;;;807.35;;
55202;SDS011;41077;52.956;6.796;2023-08-31T09:10:40;870.42;;;802.50;;
55202;SDS011;41077;52.956;6.796;2023-08-31T09:13:11;856.33;;;788.92;;
55202;SDS011;41077;52.956;6.796;2023-08-31T09:15:39;792.85;;;733.47;;
55202;SDS011;41077;52.956;6.796;2023-08-31T09:18:06;794.55;;;734.30;;
55202;SDS011;41077;52.956;6.796;2023-08-31T09:20:32;843.58;;;779.17;;
55202;SDS011;41077;52.956;6.796;2023-08-31T09:23:09;712.22;;;656.97;;
55202;SDS011;41077;52.956;6.796;2023-08-31T09:25:38;609.25;;;567.47;;
55202;SDS011;41077;52.956;6.796;2023-08-31T09:28:07;532.05;;;497.52;;
55202;SDS011;41077;52.956;6.796;2023-08-31T09:30:37;552.47;;;516.40;;
55202;SDS011;41077;52.956;6.796;2023-08-31T09:33:05;578.30;;;538.90;;
55202;SDS011;41077;52.956;6.796;2023-08-31T09:35:41;564.33;;;526.30;;
55202;SDS011;41077;52.956;6.796;2023-08-31T09:38:31;572.80;;;534.53;;
55202;SDS011;41077;52.956;6.796;2023-08-31T09:41:06;668.20;;;620.58;;
55202;SDS011;41077;52.956;6.796;2023-08-31T09:43:32;676.95;;;628.65;;
55202;SDS011;41077;52.956;6.796;2023-08-31T09:45:58;635.85;;;590.60;;
55202;SDS011;41077;52.956;6.796;2023-08-31T09:48:24;662.70;;;616.78;;
55202;SDS011;41077;52.956;6.796;2023-08-31T09:50:52;697.78;;;648.85;;
55202;SDS011;41077;52.956;6.796;2023-08-31T09:53:19;718.08;;;667.38;;
55202;SDS011;41077;52.956;6.796;2023-08-31T09:55:46;728.40;;;676.67;;
55202;SDS011;41077;52.956;6.796;2023-08-31T09:58:17;768.58;;;713.00;;
55202;SDS011;41077;52.956;6.796;2023-08-31T10:00:48;783.45;;;726.05;;
55202;SDS011;41077;52.956;6.796;2023-08-31T10:03:15;793.00;;;735.55;;
55202;SDS011;41077;52.956;6.796;2023-08-31T10:05:44;824.42;;;763.20;;
55202;SDS011;41077;52.956;6.796;2023-08-31T10:08:11;870.83;;;802.83;;
55202;SDS011;41077;52.956;6.796;2023-08-31T10:10:37;878.40;;;810.83;;
55202;SDS011;41077;52.956;6.796;2023-08-31T10:13:04;900.47;;;827.45;;
55202;SDS011;41077;52.956;6.796;2023-08-31T10:15:31;944.92;;;866.92;;
55202;SDS011;41077;52.956;6.796;2023-08-31T10:18:02;950.17;;;867.95;;
55202;SDS011;41077;52.956;6.796;2023-08-31T10:20:29;995.20;;;903.20;;
55202;SDS011;41077;52.956;6.796;2023-08-31T10:23:05;1038.35;;;937.05;;
55202;SDS011;41077;52.956;6.796;2023-08-31T10:28:24;946.47;;;864.28;;
55202;SDS011;41077;52.956;6.796;2023-08-31T10:33:40;979.33;;;889.65;;
55202;SDS011;41077;52.956;6.796;2023-08-31T10:36:11;940.47;;;856.70;;
55202;SDS011;41077;52.956;6.796;2023-08-31T10:38:39;942.20;;;862.58;;
55202;SDS011;41077;52.956;6.796;2023-08-31T10:43:46;917.53;;;841.78;;
55202;SDS011;41077;52.956;6.796;2023-08-31T10:51:43;833.80;;;765.45;;
55202;SDS011;41077;52.956;6.796;2023-08-31T10:59:22;746.75;;;693.80;;
55202;SDS011;41077;52.956;6.796;2023-08-31T11:04:19;622.70;;;581.25;;
55202;SDS011;41077;52.956;6.796;2023-08-31T11:06:49;627.83;;;579.63;;
55202;SDS011;41077;52.956;6.796;2023-08-31T11:09:35;529.50;;;489.88;;
55202;SDS011;41077;52.956;6.796;2023-08-31T11:12:01;557.60;;;520.42;;
55202;SDS011;41077;52.956;6.796;2023-08-31T11:14:28;706.30;;;651.08;;
55202;SDS011;41077;52.956;6.796;2023-08-31T11:16:54;695.20;;;642.53;;
55202;SDS011;41077;52.956;6.796;2023-08-31T11:19:20;638.95;;;589.65;;
55202;SDS011;41077;52.956;6.796;2023-08-31T11:21:46;695.25;;;639.47;;
55202;SDS011;41077;52.956;6.796;2023-08-31T11:24:12;730.72;;;670.08;;
55202;SDS011;41077;52.956;6.796;2023-08-31T11:26:38;649.40;;;598.40;;
55202;SDS011;41077;52.956;6.796;2023-08-31T11:29:06;619.55;;;572.17;;
55202;SDS011;41077;52.956;6.796;2023-08-31T11:31:33;748.22;;;688.72;;
55202;SDS011;41077;52.956;6.796;2023-08-31T11:34:04;612.05;;;564.45;;
55202;SDS011;41077;52.956;6.796;2023-08-31T11:36:30;965.78;;;880.45;;
55202;SDS011;41077;52.956;6.796;2023-08-31T11:38:56;555.53;;;517.33;;
55202;SDS011;41077;52.956;6.796;2023-08-31T11:41:22;557.70;;;524.20;;
55202;SDS011;41077;52.956;6.796;2023-08-31T11:43:49;259.40;;;245.68;;
55202;SDS011;41077;52.956;6.796;2023-08-31T11:46:15;261.80;;;248.45;;
55202;SDS011;41077;52.956;6.796;2023-08-31T11:48:42;235.20;;;223.10;;
55202;SDS011;41077;52.956;6.796;2023-08-31T11:51:09;276.42;;;262.05;;
55202;SDS011;41077;52.956;6.796;2023-08-31T11:53:36;139.70;;;132.38;;
55202;SDS011;41077;52.956;6.796;2023-08-31T11:56:02;201.43;;;191.30;;
55202;SDS011;41077;52.956;6.796;2023-08-31T11:58:28;160.82;;;152.48;;
55202;SDS011;41077;52.956;6.796;2023-08-31T12:00:54;167.95;;;159.55;;
55202;SDS011;41077;52.956;6.796;2023-08-31T12:03:24;195.05;;;185.20;;
55202;SDS011;41077;52.956;6.796;2023-08-31T12:05:51;325.55;;;308.88;;
55202;SDS011;41077;52.956;6.796;2023-08-31T12:08:23;189.45;;;179.70;;
55202;SDS011;41077;52.956;6.796;2023-08-31T12:10:51;454.83;;;426.40;;
55202;SDS011;41077;52.956;6.796;2023-08-31T12:13:16;893.40;;;819.22;;
55202;SDS011;41077;52.956;6.796;2023-08-31T12:15:42;163.15;;;154.45;;
55202;SDS011;41077;52.956;6.796;2023-08-31T12:18:12;302.63;;;287.65;;
55202;SDS011;41077;52.956;6.796;2023-08-31T12:20:49;188.18;;;178.18;;
55202;SDS011;41077;52.956;6.796;2023-08-31T12:23:16;175.80;;;167.13;;
55202;SDS011;41077;52.956;6.796;2023-08-31T12:25:46;69.03;;;65.45;;
55202;SDS011;41077;52.956;6.796;2023-08-31T12:28:12;190.25;;;180.63;;
55202;SDS011;41077;52.956;6.796;2023-08-31T12:30:41;222.63;;;211.30;;
55202;SDS011;41077;52.956;6.796;2023-08-31T12:33:09;42.97;;;40.75;;
55202;SDS011;41077;52.956;6.796;2023-08-31T12:35:35;39.72;;;37.67;;
55202;SDS011;41077;52.956;6.796;2023-08-31T12:38:01;131.90;;;125.28;;
55202;SDS011;41077;52.956;6.796;2023-08-31T12:40:27;73.63;;;69.80;;
55202;SDS011;41077;52.956;6.796;2023-08-31T12:42:52;114.40;;;108.72;;
55202;SDS011;41077;52.956;6.796;2023-08-31T12:45:18;56.95;;;53.90;;
55202;SDS011;41077;52.956;6.796;2023-08-31T12:47:44;143.63;;;135.68;;
55202;SDS011;41077;52.956;6.796;2023-08-31T12:50:09;485.20;;;455.05;;
55202;SDS011;41077;52.956;6.796;2023-08-31T12:52:35;500.05;;;469.92;;
55202;SDS011;41077;52.956;6.796;2023-08-31T12:55:01;540.03;;;508.50;;
55202;SDS011;41077;52.956;6.796;2023-08-31T12:57:27;648.20;;;606.65;;
55202;SDS011;41077;52.956;6.796;2023-08-31T12:59:52;758.78;;;707.20;;
55202;SDS011;41077;52.956;6.796;2023-08-31T13:02:18;652.67;;;611.60;;
55202;SDS011;41077;52.956;6.796;2023-08-31T13:04:45;410.42;;;386.65;;
55202;SDS011;41077;52.956;6.796;2023-08-31T13:07:10;404.90;;;381.27;;
55202;SDS011;41077;52.956;6.796;2023-08-31T13:09:36;772.58;;;716.85;;
55202;SDS011;41077;52.956;6.796;2023-08-31T13:12:02;730.17;;;681.45;;
55202;SDS011;41077;52.956;6.796;2023-08-31T13:14:28;738.67;;;688.25;;
55202;SDS011;41077;52.956;6.796;2023-08-31T13:16:54;674.88;;;630.40;;
55202;SDS011;41077;52.956;6.796;2023-08-31T13:19:20;805.80;;;748.40;;
55202;SDS011;41077;52.956;6.796;2023-08-31T13:21:47;839.00;;;776.13;;
55202;SDS011;41077;52.956;6.796;2023-08-31T13:24:12;852.28;;;788.00;;
55202;SDS011;41077;52.956;6.796;2023-08-31T13:26:39;777.60;;;721.55;;
55202;SDS011;41077;52.956;6.796;2023-08-31T13:29:06;827.83;;;765.28;;
55202;SDS011;41077;52.956;6.796;2023-08-31T13:31:32;845.35;;;783.33;;
55202;SDS011;41077;52.956;6.796;2023-08-31T13:33:58;987.58;;;904.15;;
55202;SDS011;41077;52.956;6.796;2023-08-31T13:36:24;1045.97;;;951.95;;
55202;SDS011;41077;52.956;6.796;2023-08-31T13:38:50;1072.63;;;972.92;;
55202;SDS011;41077;52.956;6.796;2023-08-31T13:41:16;1098.22;;;990.95;;
55202;SDS011;41077;52.956;6.796;2023-08-31T13:43:42;1030.45;;;941.88;;
55202;SDS011;41077;52.956;6.796;2023-08-31T13:46:08;953.85;;;880.58;;
55202;SDS011;41077;52.956;6.796;2023-08-31T13:48:33;882.83;;;816.78;;
55202;SDS011;41077;52.956;6.796;2023-08-31T13:50:59;804.13;;;747.38;;
55202;SDS011;41077;52.956;6.796;2023-08-31T13:53:25;747.80;;;696.33;;
55202;SDS011;41077;52.956;6.796;2023-08-31T13:55:51;681.55;;;636.50;;
55202;SDS011;41077;52.956;6.796;2023-08-31T13:58:16;720.53;;;672.22;;
55202;SDS011;41077;52.956;6.796;2023-08-31T14:00:42;688.28;;;643.05;;
55202;SDS011;41077;52.956;6.796;2023-08-31T14:03:07;831.88;;;771.00;;
55202;SDS011;41077;52.956;6.796;2023-08-31T14:05:33;847.88;;;785.92;;
55202;SDS011;41077;52.956;6.796;2023-08-31T14:08:00;878.65;;;812.35;;
55202;SDS011;41077;52.956;6.796;2023-08-31T14:10:30;1053.50;;;956.10;;
55202;SDS011;41077;52.956;6.796;2023-08-31T14:12:57;897.03;;;827.38;;
55202;SDS011;41077;52.956;6.796;2023-08-31T14:15:23;893.13;;;820.78;;
55202;SDS011;41077;52.956;6.796;2023-08-31T14:17:51;925.72;;;850.03;;
55202;SDS011;41077;52.956;6.796;2023-08-31T14:20:18;666.22;;;622.78;;
55202;SDS011;41077;52.956;6.796;2023-08-31T14:22:44;579.47;;;543.88;;
55202;SDS011;41077;52.956;6.796;2023-08-31T14:25:14;610.97;;;570.83;;